sensor_id;sensor_type;location;lat;lon;timestamp;temperature;humidity
21039;DHT22;10678;51.002;4.786;2024-01-30T00:01:50;9.30;99.90
21039;DHT22;10678;51.002;4.786;2024-01-30T00:04:16;9.20;99.90
21039;DHT22;10678;51.002;4.786;2024-01-30T00:06:43;9.20;99.90
21039;DHT22;10678;51.002;4.786;2024-01-30T00:09:08;9.20;99.90
21039;DHT22;10678;51.002;4.786;2024-01-30T00:11:35;9.10;99.90
21039;DHT22;10678;51.002;4.786;2024-01-30T00:14:01;9.20;99.90
21039;DHT22;10678;51.002;4.786;2024-01-30T00:16:27;9.10;99.90
21039;DHT22;10678;51.002;4.786;2024-01-30T00:18:53;9.20;99.90
21039;DHT22;10678;51.002;4.786;2024-01-30T00:21:19;9.10;99.90
21039;DHT22;10678;51.002;4.786;2024-01-30T00:23:45;9.10;99.90
21039;DHT22;10678;51.002;4.786;2024-01-30T00:26:10;9.10;99.90
21039;DHT22;10678;51.002;4.786;2024-01-30T00:28:37;9.10;99.90
21039;DHT22;10678;51.002;4.786;2024-01-30T00:31:03;9.10;99.90
21039;DHT22;10678;51.002;4.786;2024-01-30T00:33:29;9.10;99.90
21039;DHT22;10678;51.002;4.786;2024-01-30T00:35:55;9.10;99.90
21039;DHT22;10678;51.002;4.786;2024-01-30T00:38:21;9.00;99.90
21039;DHT22;10678;51.002;4.786;2024-01-30T00:40:46;9.10;99.90
21039;DHT22;10678;51.002;4.786;2024-01-30T00:43:12;9.10;99.90
21039;DHT22;10678;51.002;4.786;2024-01-30T00:45:37;9.10;99.90
21039;DHT22;10678;51.002;4.786;2024-01-30T00:48:03;9.10;99.90
21039;DHT22;10678;51.002;4.786;2024-01-30T00:50:29;9.20;99.90
21039;DHT22;10678;51.002;4.786;2024-01-30T00:52:55;9.30;99.90
21039;DHT22;10678;51.002;4.786;2024-01-30T00:55:21;9.30;99.90
21039;DHT22;10678;51.002;4.786;2024-01-30T00:57:46;9.40;99.90
21039;DHT22;10678;51.002;4.786;2024-01-30T01:00:13;9.50;99.90
21039;DHT22;10678;51.002;4.786;2024-01-30T01:02:42;9.70;99.90
21039;DHT22;10678;51.002;4.786;2024-01-30T01:05:08;9.80;99.90
21039;DHT22;10678;51.002;4.786;2024-01-30T01:07:33;9.90;99.90
21039;DHT22;10678;51.002;4.786;2024-01-30T01:09:59;10.00;99.90
21039;DHT22;10678;51.002;4.786;2024-01-30T01:12:25;10.00;99.90
21039;DHT22;10678;51.002;4.786;2024-01-30T01:14:50;10.00;99.90
21039;DHT22;10678;51.002;4.786;2024-01-30T01:17:16;10.00;99.90
21039;DHT22;10678;51.002;4.786;2024-01-30T01:19:42;10.10;99.90
21039;DHT22;10678;51.002;4.786;2024-01-30T01:22:07;10.10;99.90
21039;DHT22;10678;51.002;4.786;2024-01-30T01:24:33;10.20;99.90
21039;DHT22;10678;51.002;4.786;2024-01-30T01:26:59;10.30;99.90
21039;DHT22;10678;51.002;4.786;2024-01-30T01:29:25;10.30;99.90
21039;DHT22;10678;51.002;4.786;2024-01-30T01:31:56;10.30;99.90
21039;DHT22;10678;51.002;4.786;2024-01-30T01:34:22;10.30;99.90
21039;DHT22;10678;51.002;4.786;2024-01-30T01:36:49;10.30;99.90
21039;DHT22;10678;51.002;4.786;2024-01-30T01:39:15;10.40;99.90
21039;DHT22;10678;51.002;4.786;2024-01-30T01:41:41;10.40;99.90
21039;DHT22;10678;51.002;4.786;2024-01-30T01:44:07;10.40;99.90
21039;DHT22;10678;51.002;4.786;2024-01-30T01:46:34;10.40;99.90
21039;DHT22;10678;51.002;4.786;2024-01-30T01:49:04;10.40;99.90
21039;DHT22;10678;51.002;4.786;2024-01-30T01:51:31;10.40;99.90
21039;DHT22;10678;51.002;4.786;2024-01-30T01:54:01;10.40;99.90
21039;DHT22;10678;51.002;4.786;2024-01-30T01:56:27;10.50;99.90
21039;DHT22;10678;51.002;4.786;2024-01-30T01:58:55;10.60;99.90
21039;DHT22;10678;51.002;4.786;2024-01-30T02:01:21;10.60;99.90
21039;DHT22;10678;51.002;4.786;2024-01-30T02:03:47;10.60;99.90
21039;DHT22;10678;51.002;4.786;2024-01-30T02:06:14;10.60;99.90
21039;DHT22;10678;51.002;4.786;2024-01-30T02:08:40;10.60;99.90
21039;DHT22;10678;51.002;4.786;2024-01-30T02:11:06;10.60;99.90
21039;DHT22;10678;51.002;4.786;2024-01-30T02:13:32;10.60;99.90
21039;DHT22;10678;51.002;4.786;2024-01-30T02:15:58;10.50;99.90
21039;DHT22;10678;51.002;4.786;2024-01-30T02:18:23;10.50;99.90
21039;DHT22;10678;51.002;4.786;2024-01-30T02:20:51;10.50;99.90
21039;DHT22;10678;51.002;4.786;2024-01-30T02:23:19;10.40;99.90
21039;DHT22;10678;51.002;4.786;2024-01-30T02:25:45;10.40;99.90
21039;DHT22;10678;51.002;4.786;2024-01-30T02:28:12;10.30;99.90
21039;DHT22;10678;51.002;4.786;2024-01-30T02:30:44;10.30;99.90
21039;DHT22;10678;51.002;4.786;2024-01-30T02:33:10;10.20;99.90
21039;DHT22;10678;51.002;4.786;2024-01-30T02:35:36;10.20;99.90
21039;DHT22;10678;51.002;4.786;2024-01-30T02:38:02;10.10;99.90
21039;DHT22;10678;51.002;4.786;2024-01-30T02:40:27;10.20;99.90
21039;DHT22;10678;51.002;4.786;2024-01-30T02:42:53;10.10;99.90
21039;DHT22;10678;51.002;4.786;2024-01-30T02:45:18;10.00;99.90
21039;DHT22;10678;51.002;4.786;2024-01-30T02:47:45;10.00;99.90
21039;DHT22;10678;51.002;4.786;2024-01-30T02:50:10;10.00;99.90
21039;DHT22;10678;51.002;4.786;2024-01-30T02:52:36;10.00;99.90
21039;DHT22;10678;51.002;4.786;2024-01-30T02:55:02;9.90;99.90
21039;DHT22;10678;51.002;4.786;2024-01-30T02:57:28;9.80;99.90
21039;DHT22;10678;51.002;4.786;2024-01-30T02:59:54;9.70;99.90
21039;DHT22;10678;51.002;4.786;2024-01-30T03:02:20;9.70;99.90
21039;DHT22;10678;51.002;4.786;2024-01-30T03:04:46;9.60;99.90
21039;DHT22;10678;51.002;4.786;2024-01-30T03:07:12;9.60;99.90
21039;DHT22;10678;51.002;4.786;2024-01-30T03:09:38;9.60;99.90
21039;DHT22;10678;51.002;4.786;2024-01-30T03:12:04;9.60;99.90
21039;DHT22;10678;51.002;4.786;2024-01-30T03:14:31;9.60;99.90
21039;DHT22;10678;51.002;4.786;2024-01-30T03:16:56;9.60;99.90
21039;DHT22;10678;51.002;4.786;2024-01-30T03:19:22;9.60;99.90
21039;DHT22;10678;51.002;4.786;2024-01-30T03:21:47;9.60;99.90
21039;DHT22;10678;51.002;4.786;2024-01-30T03:24:13;9.70;99.90
21039;DHT22;10678;51.002;4.786;2024-01-30T03:26:38;9.60;99.90
21039;DHT22;10678;51.002;4.786;2024-01-30T03:29:04;9.70;99.90
21039;DHT22;10678;51.002;4.786;2024-01-30T03:31:30;9.60;99.90
21039;DHT22;10678;51.002;4.786;2024-01-30T03:33:55;9.70;99.90
21039;DHT22;10678;51.002;4.786;2024-01-30T03:36:21;9.70;99.90
21039;DHT22;10678;51.002;4.786;2024-01-30T03:38:47;9.70;99.90
21039;DHT22;10678;51.002;4.786;2024-01-30T03:41:12;9.70;99.90
21039;DHT22;10678;51.002;4.786;2024-01-30T03:43:38;9.70;99.90
21039;DHT22;10678;51.002;4.786;2024-01-30T03:46:04;9.60;99.90
21039;DHT22;10678;51.002;4.786;2024-01-30T03:48:29;9.80;99.90
21039;DHT22;10678;51.002;4.786;2024-01-30T03:50:55;9.90;99.90
21039;DHT22;10678;51.002;4.786;2024-01-30T03:53:21;10.10;99.90
21039;DHT22;10678;51.002;4.786;2024-01-30T03:55:47;10.10;99.90
21039;DHT22;10678;51.002;4.786;2024-01-30T03:58:12;10.30;99.90
21039;DHT22;10678;51.002;4.786;2024-01-30T04:00:38;10.40;99.90
21039;DHT22;10678;51.002;4.786;2024-01-30T04:03:04;10.50;99.90
21039;DHT22;10678;51.002;4.786;2024-01-30T04:05:29;10.60;99.90
21039;DHT22;10678;51.002;4.786;2024-01-30T04:07:55;10.70;99.90
21039;DHT22;10678;51.002;4.786;2024-01-30T04:10:21;10.70;99.90
21039;DHT22;10678;51.002;4.786;2024-01-30T04:12:47;10.80;99.90
21039;DHT22;10678;51.002;4.786;2024-01-30T04:15:13;10.90;99.90
21039;DHT22;10678;51.002;4.786;2024-01-30T04:17:39;10.90;99.90
21039;DHT22;10678;51.002;4.786;2024-01-30T04:20:05;11.00;99.90
21039;DHT22;10678;51.002;4.786;2024-01-30T04:22:31;11.10;99.90
21039;DHT22;10678;51.002;4.786;2024-01-30T04:24:57;11.20;99.90
21039;DHT22;10678;51.002;4.786;2024-01-30T04:27:23;11.30;99.90
21039;DHT22;10678;51.002;4.786;2024-01-30T04:29:48;11.30;99.90
21039;DHT22;10678;51.002;4.786;2024-01-30T04:32:14;11.30;99.90
21039;DHT22;10678;51.002;4.786;2024-01-30T04:34:40;11.30;99.90
21039;DHT22;10678;51.002;4.786;2024-01-30T04:37:05;11.30;99.90
21039;DHT22;10678;51.002;4.786;2024-01-30T04:39:33;11.20;99.90
21039;DHT22;10678;51.002;4.786;2024-01-30T04:41:58;11.30;99.90
21039;DHT22;10678;51.002;4.786;2024-01-30T04:44:24;11.30;99.90
21039;DHT22;10678;51.002;4.786;2024-01-30T04:46:50;11.30;99.90
21039;DHT22;10678;51.002;4.786;2024-01-30T04:49:16;11.30;99.90
21039;DHT22;10678;51.002;4.786;2024-01-30T04:51:41;11.30;99.90
21039;DHT22;10678;51.002;4.786;2024-01-30T04:54:07;11.30;99.90
21039;DHT22;10678;51.002;4.786;2024-01-30T04:56:33;11.20;99.90
21039;DHT22;10678;51.002;4.786;2024-01-30T04:58:59;11.20;99.90
21039;DHT22;10678;51.002;4.786;2024-01-30T05:01:25;11.30;99.90
21039;DHT22;10678;51.002;4.786;2024-01-30T05:03:51;11.30;99.90
21039;DHT22;10678;51.002;4.786;2024-01-30T05:06:26;11.30;99.90
21039;DHT22;10678;51.002;4.786;2024-01-30T05:08:52;11.30;99.90
21039;DHT22;10678;51.002;4.786;2024-01-30T05:11:18;11.50;99.90
21039;DHT22;10678;51.002;4.786;2024-01-30T05:13:44;11.50;99.90
21039;DHT22;10678;51.002;4.786;2024-01-30T05:16:09;11.40;99.90
21039;DHT22;10678;51.002;4.786;2024-01-30T05:18:35;11.50;99.90
21039;DHT22;10678;51.002;4.786;2024-01-30T05:21:01;11.50;99.90
21039;DHT22;10678;51.002;4.786;2024-01-30T05:23:27;11.40;99.90
21039;DHT22;10678;51.002;4.786;2024-01-30T05:25:53;11.50;99.90
21039;DHT22;10678;51.002;4.786;2024-01-30T05:28:18;11.50;99.90
21039;DHT22;10678;51.002;4.786;2024-01-30T05:30:44;11.60;99.90
21039;DHT22;10678;51.002;4.786;2024-01-30T05:33:09;11.70;99.90
21039;DHT22;10678;51.002;4.786;2024-01-30T05:35:37;11.70;99.90
21039;DHT22;10678;51.002;4.786;2024-01-30T05:38:03;11.70;99.90
21039;DHT22;10678;51.002;4.786;2024-01-30T05:40:30;11.60;99.90
21039;DHT22;10678;51.002;4.786;2024-01-30T05:42:55;11.70;99.90
21039;DHT22;10678;51.002;4.786;2024-01-30T05:45:21;11.70;99.90
21039;DHT22;10678;51.002;4.786;2024-01-30T05:47:48;11.60;99.90
21039;DHT22;10678;51.002;4.786;2024-01-30T05:50:14;11.50;99.90
21039;DHT22;10678;51.002;4.786;2024-01-30T05:52:40;11.70;99.90
21039;DHT22;10678;51.002;4.786;2024-01-30T05:55:06;11.90;99.90
21039;DHT22;10678;51.002;4.786;2024-01-30T05:57:32;11.80;99.90
21039;DHT22;10678;51.002;4.786;2024-01-30T05:59:57;11.80;99.90
21039;DHT22;10678;51.002;4.786;2024-01-30T06:02:23;11.90;99.90
21039;DHT22;10678;51.002;4.786;2024-01-30T06:04:49;11.80;99.90
21039;DHT22;10678;51.002;4.786;2024-01-30T06:07:14;11.90;99.90
21039;DHT22;10678;51.002;4.786;2024-01-30T06:09:40;12.00;99.90
21039;DHT22;10678;51.002;4.786;2024-01-30T06:12:06;11.90;99.90
21039;DHT22;10678;51.002;4.786;2024-01-30T06:14:32;12.00;99.90
21039;DHT22;10678;51.002;4.786;2024-01-30T06:16:58;11.90;99.90
21039;DHT22;10678;51.002;4.786;2024-01-30T06:19:24;11.90;99.90
21039;DHT22;10678;51.002;4.786;2024-01-30T06:21:50;12.00;99.90
21039;DHT22;10678;51.002;4.786;2024-01-30T06:24:16;12.00;99.90
21039;DHT22;10678;51.002;4.786;2024-01-30T06:26:41;11.90;99.90
21039;DHT22;10678;51.002;4.786;2024-01-30T06:29:07;12.00;99.90
21039;DHT22;10678;51.002;4.786;2024-01-30T06:31:33;11.90;99.90
21039;DHT22;10678;51.002;4.786;2024-01-30T06:33:58;11.90;99.90
21039;DHT22;10678;51.002;4.786;2024-01-30T06:36:24;11.80;99.90
21039;DHT22;10678;51.002;4.786;2024-01-30T06:38:50;11.80;99.90
21039;DHT22;10678;51.002;4.786;2024-01-30T06:41:15;11.70;99.90
21039;DHT22;10678;51.002;4.786;2024-01-30T06:43:41;11.80;99.90
21039;DHT22;10678;51.002;4.786;2024-01-30T06:46:06;11.80;99.90
21039;DHT22;10678;51.002;4.786;2024-01-30T06:48:32;11.70;99.90
21039;DHT22;10678;51.002;4.786;2024-01-30T06:50:58;11.70;99.90
21039;DHT22;10678;51.002;4.786;2024-01-30T06:53:23;11.70;99.90
21039;DHT22;10678;51.002;4.786;2024-01-30T06:55:51;11.80;99.90
21039;DHT22;10678;51.002;4.786;2024-01-30T06:58:17;11.80;99.90
21039;DHT22;10678;51.002;4.786;2024-01-30T07:00:42;11.80;99.90
21039;DHT22;10678;51.002;4.786;2024-01-30T07:03:08;11.70;99.90
21039;DHT22;10678;51.002;4.786;2024-01-30T07:05:33;11.70;99.90
21039;DHT22;10678;51.002;4.786;2024-01-30T07:07:59;11.80;99.90
21039;DHT22;10678;51.002;4.786;2024-01-30T07:10:25;11.90;99.90
21039;DHT22;10678;51.002;4.786;2024-01-30T07:12:50;11.90;99.90
21039;DHT22;10678;51.002;4.786;2024-01-30T07:15:16;11.70;99.90
21039;DHT22;10678;51.002;4.786;2024-01-30T07:17:43;11.70;99.90
21039;DHT22;10678;51.002;4.786;2024-01-30T07:20:09;11.70;99.90
21039;DHT22;10678;51.002;4.786;2024-01-30T07:22:36;11.70;99.90
21039;DHT22;10678;51.002;4.786;2024-01-30T07:25:01;11.70;99.90
21039;DHT22;10678;51.002;4.786;2024-01-30T07:27:27;11.70;99.90
21039;DHT22;10678;51.002;4.786;2024-01-30T07:29:53;11.70;99.90
21039;DHT22;10678;51.002;4.786;2024-01-30T07:32:18;11.70;99.90
21039;DHT22;10678;51.002;4.786;2024-01-30T07:34:44;11.70;99.90
21039;DHT22;10678;51.002;4.786;2024-01-30T07:37:10;11.60;99.90
21039;DHT22;10678;51.002;4.786;2024-01-30T07:39:38;11.60;99.90
21039;DHT22;10678;51.002;4.786;2024-01-30T07:42:04;11.60;99.90
21039;DHT22;10678;51.002;4.786;2024-01-30T07:44:30;11.70;99.90
21039;DHT22;10678;51.002;4.786;2024-01-30T07:46:55;11.80;99.90
21039;DHT22;10678;51.002;4.786;2024-01-30T07:49:22;11.90;99.90
21039;DHT22;10678;51.002;4.786;2024-01-30T07:51:48;11.90;99.90
21039;DHT22;10678;51.002;4.786;2024-01-30T07:54:13;12.00;99.90
21039;DHT22;10678;51.002;4.786;2024-01-30T07:56:39;12.10;99.90
21039;DHT22;10678;51.002;4.786;2024-01-30T07:59:05;12.10;99.90
21039;DHT22;10678;51.002;4.786;2024-01-30T08:01:30;12.10;99.90
21039;DHT22;10678;51.002;4.786;2024-01-30T08:03:56;12.10;99.90
21039;DHT22;10678;51.002;4.786;2024-01-30T08:06:22;12.20;99.90
21039;DHT22;10678;51.002;4.786;2024-01-30T08:08:47;12.30;99.90
21039;DHT22;10678;51.002;4.786;2024-01-30T08:11:13;12.30;99.90
21039;DHT22;10678;51.002;4.786;2024-01-30T08:13:39;12.30;99.90
21039;DHT22;10678;51.002;4.786;2024-01-30T08:16:05;12.40;99.90
21039;DHT22;10678;51.002;4.786;2024-01-30T08:18:30;12.60;99.90
21039;DHT22;10678;51.002;4.786;2024-01-30T08:20:56;12.60;99.90
21039;DHT22;10678;51.002;4.786;2024-01-30T08:23:21;12.60;99.90
21039;DHT22;10678;51.002;4.786;2024-01-30T08:25:47;12.50;99.90
21039;DHT22;10678;51.002;4.786;2024-01-30T08:28:13;12.50;99.90
21039;DHT22;10678;51.002;4.786;2024-01-30T08:30:38;12.50;99.90
21039;DHT22;10678;51.002;4.786;2024-01-30T08:33:05;12.60;99.90
21039;DHT22;10678;51.002;4.786;2024-01-30T08:35:31;12.60;99.90
21039;DHT22;10678;51.002;4.786;2024-01-30T08:37:59;12.60;99.90
21039;DHT22;10678;51.002;4.786;2024-01-30T08:40:24;12.70;99.90
21039;DHT22;10678;51.002;4.786;2024-01-30T08:42:50;12.60;99.90
21039;DHT22;10678;51.002;4.786;2024-01-30T08:45:16;12.70;99.90
21039;DHT22;10678;51.002;4.786;2024-01-30T08:47:41;12.70;99.90
21039;DHT22;10678;51.002;4.786;2024-01-30T08:50:07;12.80;99.90
21039;DHT22;10678;51.002;4.786;2024-01-30T08:52:33;12.80;99.90
21039;DHT22;10678;51.002;4.786;2024-01-30T08:55:00;12.80;99.90
21039;DHT22;10678;51.002;4.786;2024-01-30T08:57:25;12.90;99.90
21039;DHT22;10678;51.002;4.786;2024-01-30T08:59:54;12.90;99.90
21039;DHT22;10678;51.002;4.786;2024-01-30T09:02:20;12.90;99.90
21039;DHT22;10678;51.002;4.786;2024-01-30T09:04:46;13.00;99.90
21039;DHT22;10678;51.002;4.786;2024-01-30T09:07:11;12.80;99.90
21039;DHT22;10678;51.002;4.786;2024-01-30T09:09:39;12.90;99.90
21039;DHT22;10678;51.002;4.786;2024-01-30T09:12:06;13.00;99.90
21039;DHT22;10678;51.002;4.786;2024-01-30T09:14:38;13.00;99.90
21039;DHT22;10678;51.002;4.786;2024-01-30T09:17:04;13.10;99.90
21039;DHT22;10678;51.002;4.786;2024-01-30T09:19:30;13.10;99.90
21039;DHT22;10678;51.002;4.786;2024-01-30T09:21:56;13.20;99.90
21039;DHT22;10678;51.002;4.786;2024-01-30T09:24:21;13.20;99.90
21039;DHT22;10678;51.002;4.786;2024-01-30T09:26:47;13.30;99.90
21039;DHT22;10678;51.002;4.786;2024-01-30T09:29:13;13.30;99.90
21039;DHT22;10678;51.002;4.786;2024-01-30T09:31:38;13.30;99.90
21039;DHT22;10678;51.002;4.786;2024-01-30T09:34:04;13.30;99.90
21039;DHT22;10678;51.002;4.786;2024-01-30T09:36:29;13.40;99.90
21039;DHT22;10678;51.002;4.786;2024-01-30T09:38:55;13.30;99.90
21039;DHT22;10678;51.002;4.786;2024-01-30T09:41:24;13.40;99.90
21039;DHT22;10678;51.002;4.786;2024-01-30T09:43:50;13.40;99.90
21039;DHT22;10678;51.002;4.786;2024-01-30T09:46:17;13.20;99.90
21039;DHT22;10678;51.002;4.786;2024-01-30T09:48:48;13.20;99.90
21039;DHT22;10678;51.002;4.786;2024-01-30T09:51:15;13.30;99.90
21039;DHT22;10678;51.002;4.786;2024-01-30T09:53:42;13.40;99.90
21039;DHT22;10678;51.002;4.786;2024-01-30T09:56:09;13.50;99.90
21039;DHT22;10678;51.002;4.786;2024-01-30T09:58:35;13.70;99.90
21039;DHT22;10678;51.002;4.786;2024-01-30T10:01:00;13.90;99.90
21039;DHT22;10678;51.002;4.786;2024-01-30T10:03:26;13.70;99.90
21039;DHT22;10678;51.002;4.786;2024-01-30T10:05:52;13.70;99.90
21039;DHT22;10678;51.002;4.786;2024-01-30T10:08:18;13.60;99.90
21039;DHT22;10678;51.002;4.786;2024-01-30T10:10:48;13.80;99.90
21039;DHT22;10678;51.002;4.786;2024-01-30T10:13:15;13.70;99.90
21039;DHT22;10678;51.002;4.786;2024-01-30T10:15:41;13.70;99.90
21039;DHT22;10678;51.002;4.786;2024-01-30T10:18:08;13.70;99.90
21039;DHT22;10678;51.002;4.786;2024-01-30T10:20:35;13.70;99.90
21039;DHT22;10678;51.002;4.786;2024-01-30T10:23:01;13.60;99.90
21039;DHT22;10678;51.002;4.786;2024-01-30T10:25:27;13.70;99.90
21039;DHT22;10678;51.002;4.786;2024-01-30T10:27:55;13.70;99.90
21039;DHT22;10678;51.002;4.786;2024-01-30T10:30:22;13.70;99.90
21039;DHT22;10678;51.002;4.786;2024-01-30T10:32:48;13.80;99.90
21039;DHT22;10678;51.002;4.786;2024-01-30T10:35:14;13.80;99.90
21039;DHT22;10678;51.002;4.786;2024-01-30T10:37:43;13.90;99.90
21039;DHT22;10678;51.002;4.786;2024-01-30T10:40:10;13.90;99.90
21039;DHT22;10678;51.002;4.786;2024-01-30T10:42:42;13.70;99.90
21039;DHT22;10678;51.002;4.786;2024-01-30T10:45:14;13.70;99.90
21039;DHT22;10678;51.002;4.786;2024-01-30T10:47:50;13.60;99.90
21039;DHT22;10678;51.002;4.786;2024-01-30T10:50:16;13.60;99.90
21039;DHT22;10678;51.002;4.786;2024-01-30T10:52:42;13.60;99.90
21039;DHT22;10678;51.002;4.786;2024-01-30T10:55:10;13.50;99.90
21039;DHT22;10678;51.002;4.786;2024-01-30T10:57:36;13.60;99.90
21039;DHT22;10678;51.002;4.786;2024-01-30T11:00:08;13.60;99.90
21039;DHT22;10678;51.002;4.786;2024-01-30T11:02:44;13.80;99.90
21039;DHT22;10678;51.002;4.786;2024-01-30T11:05:10;13.70;99.90
21039;DHT22;10678;51.002;4.786;2024-01-30T11:07:39;13.60;99.90
21039;DHT22;10678;51.002;4.786;2024-01-30T11:10:05;13.30;99.90
21039;DHT22;10678;51.002;4.786;2024-01-30T11:12:38;13.20;99.90
21039;DHT22;10678;51.002;4.786;2024-01-30T11:15:14;13.20;99.90
21039;DHT22;10678;51.002;4.786;2024-01-30T11:17:58;13.20;99.90
21039;DHT22;10678;51.002;4.786;2024-01-30T11:20:30;13.30;99.90
21039;DHT22;10678;51.002;4.786;2024-01-30T11:22:57;13.40;99.90
21039;DHT22;10678;51.002;4.786;2024-01-30T11:25:24;13.40;99.90
21039;DHT22;10678;51.002;4.786;2024-01-30T11:27:54;13.60;99.90
21039;DHT22;10678;51.002;4.786;2024-01-30T11:33:12;13.60;99.90
21039;DHT22;10678;51.002;4.786;2024-01-30T11:35:42;13.50;99.90
21039;DHT22;10678;51.002;4.786;2024-01-30T11:38:09;13.50;99.90
21039;DHT22;10678;51.002;4.786;2024-01-30T11:40:37;13.50;99.90
21039;DHT22;10678;51.002;4.786;2024-01-30T11:43:04;13.70;99.90
21039;DHT22;10678;51.002;4.786;2024-01-30T11:45:30;13.50;99.90
21039;DHT22;10678;51.002;4.786;2024-01-30T11:47:57;13.40;99.90
21039;DHT22;10678;51.002;4.786;2024-01-30T11:50:23;13.30;99.90
21039;DHT22;10678;51.002;4.786;2024-01-30T11:52:50;13.20;99.90
21039;DHT22;10678;51.002;4.786;2024-01-30T11:55:16;13.10;99.90
21039;DHT22;10678;51.002;4.786;2024-01-30T11:57:42;13.10;99.90
21039;DHT22;10678;51.002;4.786;2024-01-30T12:00:19;13.10;99.90
21039;DHT22;10678;51.002;4.786;2024-01-30T12:02:49;13.00;99.90
21039;DHT22;10678;51.002;4.786;2024-01-30T12:05:16;12.90;99.90
21039;DHT22;10678;51.002;4.786;2024-01-30T12:07:44;13.00;99.90
21039;DHT22;10678;51.002;4.786;2024-01-30T12:10:12;12.90;99.90
21039;DHT22;10678;51.002;4.786;2024-01-30T12:12:41;12.90;99.90
21039;DHT22;10678;51.002;4.786;2024-01-30T12:15:07;13.10;99.90
21039;DHT22;10678;51.002;4.786;2024-01-30T12:17:33;13.20;99.90
21039;DHT22;10678;51.002;4.786;2024-01-30T12:20:22;13.40;99.90
21039;DHT22;10678;51.002;4.786;2024-01-30T12:22:49;13.20;99.90
21039;DHT22;10678;51.002;4.786;2024-01-30T12:25:17;13.20;99.90
21039;DHT22;10678;51.002;4.786;2024-01-30T12:27:44;13.30;99.90
21039;DHT22;10678;51.002;4.786;2024-01-30T12:30:12;13.50;99.90
21039;DHT22;10678;51.002;4.786;2024-01-30T12:32:43;13.60;99.90
21039;DHT22;10678;51.002;4.786;2024-01-30T12:35:19;13.80;99.90
21039;DHT22;10678;51.002;4.786;2024-01-30T12:37:46;13.90;99.90
21039;DHT22;10678;51.002;4.786;2024-01-30T12:40:14;13.60;99.90
21039;DHT22;10678;51.002;4.786;2024-01-30T12:42:43;13.60;99.90
21039;DHT22;10678;51.002;4.786;2024-01-30T12:45:11;13.60;99.90
21039;DHT22;10678;51.002;4.786;2024-01-30T12:47:38;13.50;99.90
21039;DHT22;10678;51.002;4.786;2024-01-30T12:50:04;13.30;99.90
21039;DHT22;10678;51.002;4.786;2024-01-30T12:52:30;13.40;99.90
21039;DHT22;10678;51.002;4.786;2024-01-30T12:54:56;13.30;99.90
21039;DHT22;10678;51.002;4.786;2024-01-30T12:57:21;13.20;99.90
21039;DHT22;10678;51.002;4.786;2024-01-30T12:59:47;13.00;99.90
21039;DHT22;10678;51.002;4.786;2024-01-30T13:02:13;13.10;99.90
21039;DHT22;10678;51.002;4.786;2024-01-30T13:04:39;13.40;99.90
21039;DHT22;10678;51.002;4.786;2024-01-30T13:07:05;13.40;99.90
21039;DHT22;10678;51.002;4.786;2024-01-30T13:09:31;13.40;99.90
21039;DHT22;10678;51.002;4.786;2024-01-30T13:11:57;13.30;99.90
21039;DHT22;10678;51.002;4.786;2024-01-30T13:14:24;13.40;99.90
21039;DHT22;10678;51.002;4.786;2024-01-30T13:16:50;13.50;99.90
21039;DHT22;10678;51.002;4.786;2024-01-30T13:19:16;13.60;99.90
21039;DHT22;10678;51.002;4.786;2024-01-30T13:21:42;13.80;99.90
21039;DHT22;10678;51.002;4.786;2024-01-30T13:24:08;13.70;99.90
21039;DHT22;10678;51.002;4.786;2024-01-30T13:26:34;13.60;99.90
21039;DHT22;10678;51.002;4.786;2024-01-30T13:28:59;13.40;99.90
21039;DHT22;10678;51.002;4.786;2024-01-30T13:31:25;13.20;99.90
21039;DHT22;10678;51.002;4.786;2024-01-30T13:33:52;12.90;99.90
21039;DHT22;10678;51.002;4.786;2024-01-30T13:36:18;12.70;99.90
21039;DHT22;10678;51.002;4.786;2024-01-30T13:38:44;12.80;99.90
21039;DHT22;10678;51.002;4.786;2024-01-30T13:41:09;12.80;99.90
21039;DHT22;10678;51.002;4.786;2024-01-30T13:43:35;12.70;99.90
21039;DHT22;10678;51.002;4.786;2024-01-30T13:46:01;12.80;99.90
21039;DHT22;10678;51.002;4.786;2024-01-30T13:48:26;12.80;99.90
21039;DHT22;10678;51.002;4.786;2024-01-30T13:50:53;12.90;99.90
21039;DHT22;10678;51.002;4.786;2024-01-30T13:53:18;12.90;99.90
21039;DHT22;10678;51.002;4.786;2024-01-30T13:55:44;13.00;99.90
21039;DHT22;10678;51.002;4.786;2024-01-30T13:58:10;13.20;99.90
21039;DHT22;10678;51.002;4.786;2024-01-30T14:00:36;13.30;99.90
21039;DHT22;10678;51.002;4.786;2024-01-30T14:03:02;13.30;99.90
21039;DHT22;10678;51.002;4.786;2024-01-30T14:05:28;13.10;99.90
21039;DHT22;10678;51.002;4.786;2024-01-30T14:07:54;12.90;99.90
21039;DHT22;10678;51.002;4.786;2024-01-30T14:10:20;12.90;99.90
21039;DHT22;10678;51.002;4.786;2024-01-30T14:12:46;12.90;99.90
21039;DHT22;10678;51.002;4.786;2024-01-30T14:15:14;12.80;99.90
21039;DHT22;10678;51.002;4.786;2024-01-30T14:17:45;12.60;99.90
21039;DHT22;10678;51.002;4.786;2024-01-30T14:20:14;12.50;99.90
21039;DHT22;10678;51.002;4.786;2024-01-30T14:22:42;12.40;99.90
21039;DHT22;10678;51.002;4.786;2024-01-30T14:25:08;12.30;99.90
21039;DHT22;10678;51.002;4.786;2024-01-30T14:27:34;12.20;99.90
21039;DHT22;10678;51.002;4.786;2024-01-30T14:30:00;12.10;99.90
21039;DHT22;10678;51.002;4.786;2024-01-30T14:32:26;12.00;99.90
21039;DHT22;10678;51.002;4.786;2024-01-30T14:34:51;11.90;99.90
21039;DHT22;10678;51.002;4.786;2024-01-30T14:37:23;11.90;99.90
21039;DHT22;10678;51.002;4.786;2024-01-30T14:39:49;11.80;99.90
21039;DHT22;10678;51.002;4.786;2024-01-30T14:42:15;11.80;99.90
21039;DHT22;10678;51.002;4.786;2024-01-30T14:44:41;11.70;99.90
21039;DHT22;10678;51.002;4.786;2024-01-30T14:47:07;11.60;99.90
21039;DHT22;10678;51.002;4.786;2024-01-30T14:49:33;11.60;99.90
21039;DHT22;10678;51.002;4.786;2024-01-30T14:51:59;11.60;99.90
21039;DHT22;10678;51.002;4.786;2024-01-30T14:54:26;11.50;99.90
21039;DHT22;10678;51.002;4.786;2024-01-30T14:56:52;11.60;99.90
21039;DHT22;10678;51.002;4.786;2024-01-30T14:59:18;11.60;99.90
21039;DHT22;10678;51.002;4.786;2024-01-30T15:01:43;11.50;99.90
21039;DHT22;10678;51.002;4.786;2024-01-30T15:04:10;11.50;99.90
21039;DHT22;10678;51.002;4.786;2024-01-30T15:06:36;11.40;99.90
21039;DHT22;10678;51.002;4.786;2024-01-30T15:09:02;11.30;99.90
21039;DHT22;10678;51.002;4.786;2024-01-30T15:11:28;11.20;99.90
21039;DHT22;10678;51.002;4.786;2024-01-30T15:13:54;11.20;99.90
21039;DHT22;10678;51.002;4.786;2024-01-30T15:16:19;11.10;99.90
21039;DHT22;10678;51.002;4.786;2024-01-30T15:18:45;11.10;99.90
21039;DHT22;10678;51.002;4.786;2024-01-30T15:21:11;11.00;99.90
21039;DHT22;10678;51.002;4.786;2024-01-30T15:23:36;10.90;99.90
21039;DHT22;10678;51.002;4.786;2024-01-30T15:26:02;11.00;99.90
21039;DHT22;10678;51.002;4.786;2024-01-30T15:28:38;11.10;99.90
21039;DHT22;10678;51.002;4.786;2024-01-30T15:31:04;11.00;99.90